.
WxDataArchive / Data Records for 2009-01-30
2009-01-29 January 2009 2009-01-31

Data Records for Friday, 30 January 2009

Time	Temp	Chill	HIndex	Humid	Dewpt	 Wind 	HiWind	WindDir	Rain 	Barom 
-----	----	-----	------	-----	-----	------	------	-------	-----	----- 
00:00	18.8	18.8	18.8	63	8.3	3	6	270	0.00	29.993 
00:05	18.6	18.6	18.6	64	8.5	3	7	270	0.00	29.992 
00:10	18.4	18.4	18.4	64	8.3	3	4	270	0.00	29.991 
00:15	18.4	12.4	18.4	64	8.3	4	11	270	0.00	29.990 
00:20	18.3	18.3	18.3	64	8.2	3	6	270	0.00	29.988 
00:25	18.0	18.0	18.0	64	7.9	3	6	270	0.00	29.986 
00:30	18.0	18.0	18.0	65	8.3	2	5	270	0.00	29.988 
00:35	17.8	17.8	17.8	65	8.1	2	5	248	0.00	29.985 
00:40	17.7	17.7	17.7	65	8.0	2	5	225	0.00	29.985 
00:45	17.5	17.5	17.5	65	7.8	2	6	248	0.00	29.986 
00:50	17.3	17.3	17.3	66	7.9	3	7	248	0.00	29.990 
00:55	17.3	17.3	17.3	65	7.6	3	10	270	0.00	29.987 
01:00	17.2	17.2	17.2	65	7.5	3	5	270	0.00	29.988 
01:05	17.2	17.2	17.2	65	7.5	2	5	270	0.00	29.988 
01:10	16.9	16.9	16.9	65	7.2	1	3	248	0.00	29.987 
01:15	16.7	16.7	16.7	65	7.0	1	3	248	0.00	29.984 
01:20	16.5	16.5	16.5	66	7.2	2	5	248	0.00	29.984 
01:25	16.4	16.4	16.4	66	7.1	2	6	270	0.00	29.984 
01:30	16.2	16.2	16.2	66	6.9	3	6	248	0.00	29.982 
01:35	16.1	16.1	16.1	66	6.8	1	4	248	0.00	29.981 
01:40	15.9	15.9	15.9	66	6.6	1	4	270	0.00	29.981 
01:45	15.7	15.7	15.7	67	6.7	2	6	248	0.00	29.982 
01:50	15.7	15.7	15.7	67	6.7	2	5	248	0.00	29.982 
01:55	15.7	15.7	15.7	67	6.7	2	7	248	0.00	29.983 
02:00	15.6	15.6	15.6	67	6.6	2	5	248	0.00	29.985 
02:05	15.4	15.4	15.4	67	6.4	2	5	248	0.00	29.984 
02:10	15.4	15.4	15.4	68	6.8	1	4	248	0.00	29.988 
02:15	15.1	15.1	15.1	68	6.5	2	6	248	0.00	29.990 
02:20	15.1	15.1	15.1	69	6.8	2	7	270	0.00	29.991 
02:25	15.1	15.1	15.1	69	6.8	2	5	270	0.00	29.990 
02:30	15.1	15.1	15.1	69	6.8	2	7	248	0.00	29.993 
02:35	14.9	14.9	14.9	69	6.6	2	6	248	0.00	29.995 
02:40	14.8	14.8	14.8	70	6.8	1	5	225	0.00	29.991 
02:45	14.6	14.6	14.6	70	6.6	2	5	248	0.00	29.990 
02:50	14.4	14.4	14.4	70	6.4	1	4	248	0.00	29.988 
02:55	14.3	14.3	14.3	71	6.6	2	7	248	0.00	29.988 
03:00	14.1	14.1	14.1	71	6.5	3	7	248	0.00	29.992 
03:05	14.1	14.1	14.1	70	6.1	3	9	248	0.00	29.989 
03:10	14.0	14.0	14.0	70	6.0	1	4	248	0.00	29.991 
03:15	14.0	14.0	14.0	71	6.4	1	4	248	0.00	29.990 
03:20	14.0	14.0	14.0	72	6.7	1	3	248	0.00	29.989 
03:25	14.1	14.1	14.1	73	7.1	2	4	248	0.00	29.989 
03:30	14.3	14.3	14.3	72	7.0	3	7	248	0.00	29.988 
03:35	14.4	14.4	14.4	72	7.1	2	6	248	0.00	29.988 
03:40	14.6	14.6	14.6	71	6.9	3	10	270	0.00	29.985 
03:45	14.6	14.6	14.6	71	6.9	2	4	270	0.00	29.983 
03:50	14.6	14.6	14.6	71	6.9	2	7	270	0.00	29.985 
03:55	14.6	14.6	14.6	70	6.6	3	6	270	0.00	29.985 
04:00	14.6	14.6	14.6	70	6.6	3	8	270	0.00	29.984 
04:05	14.6	14.6	14.6	69	6.3	3	9	270	0.00	29.985 
04:10	14.8	14.8	14.8	69	6.5	3	9	248	0.00	29.986 
04:15	14.8	8.2	14.8	69	6.5	4	7	270	0.00	29.986 
04:20	14.9	14.9	14.9	69	6.6	3	6	270	0.00	29.985 
04:25	14.9	14.9	14.9	69	6.6	2	6	270	0.00	29.984 
04:30	14.9	14.9	14.9	69	6.6	2	5	270	0.00	29.985 
04:35	15.1	15.1	15.1	69	6.8	3	7	270	0.00	29.987 
04:40	15.1	15.1	15.1	69	6.8	3	7	248	0.00	29.985 
04:45	15.1	8.6	15.1	69	6.8	4	7	270	0.00	29.989 
04:50	15.2	15.2	15.2	69	6.9	1	5	270	0.00	29.986 
04:55	15.2	15.2	15.2	69	6.9	2	5	270	0.00	29.986 
05:00	15.2	15.2	15.2	69	6.9	3	9	270	0.00	29.989 
05:05	15.2	15.2	15.2	69	6.9	2	4	248	0.00	29.987 
05:10	15.2	15.2	15.2	69	6.9	2	5	270	0.00	29.986 
05:15	15.2	15.2	15.2	69	6.9	2	6	270	0.00	29.987 
05:20	15.4	15.4	15.4	69	7.1	3	5	270	0.00	29.984 
05:25	15.4	15.4	15.4	69	7.1	3	9	270	0.00	29.989 
05:30	15.4	15.4	15.4	69	7.1	2	5	270	0.00	29.991 
05:35	15.4	15.4	15.4	69	7.1	2	5	248	0.00	29.994 
05:40	15.4	15.4	15.4	68	6.8	3	6	270	0.00	29.993 
05:45	15.4	15.4	15.4	69	7.1	2	4	270	0.00	29.995 
05:50	15.4	15.4	15.4	69	7.1	2	6	248	0.00	29.997 
05:55	15.6	15.6	15.6	68	7.0	3	9	270	0.00	29.997 
06:00	15.4	15.4	15.4	68	6.8	2	4	248	0.00	29.999 
06:05	15.2	15.2	15.2	68	6.6	1	4	292	0.00	30.003 
06:10	15.1	15.1	15.1	68	6.5	2	3	248	0.00	30.007 
06:15	15.1	15.1	15.1	68	6.5	1	3	248	0.00	30.008 
06:20	14.9	14.9	14.9	68	6.3	1	3	248	0.00	30.008 
06:25	15.1	15.1	15.1	68	6.5	2	4	248	0.00	30.010 
06:30	15.1	15.1	15.1	69	6.8	2	4	248	0.00	30.009 
06:35	15.2	15.2	15.2	68	6.6	2	4	248	0.00	30.012 
06:40	15.2	15.2	15.2	68	6.6	2	10	248	0.00	30.012 
06:45	15.2	15.2	15.2	68	6.6	2	4	248	0.00	30.013 
06:50	15.1	15.1	15.1	68	6.5	2	4	270	0.00	30.012 
06:55	15.1	15.1	15.1	68	6.5	1	3	270	0.00	30.013 
07:00	14.9	14.9	14.9	67	6.0	2	7	270	0.00	30.014 
07:05	14.9	14.9	14.9	67	6.0	2	6	270	0.00	30.015 
07:10	14.8	14.8	14.8	67	5.9	3	6	270	0.00	30.016 
07:15	14.6	14.6	14.6	67	5.7	2	6	270	0.00	30.017 
07:20	14.6	14.6	14.6	67	5.7	2	5	270	0.00	30.018 
07:25	14.3	14.3	14.3	67	5.4	2	4	270	0.00	30.020 
07:30	14.1	14.1	14.1	68	5.5	2	4	270	0.00	30.027 
07:35	14.1	14.1	14.1	68	5.5	2	4	270	0.00	30.028 
07:40	14.0	14.0	14.0	69	5.7	3	10	270	0.00	30.030 
07:45	13.8	13.8	13.8	69	5.5	3	9	270	0.00	30.031 
07:50	13.8	13.8	13.8	70	5.9	2	4	270	0.00	30.032 
07:55	13.6	13.6	13.6	70	5.7	2	6	270	0.00	30.034 
08:00	13.5	13.5	13.5	70	5.6	3	6	270	0.00	30.035 
08:05	13.5	13.5	13.5	70	5.6	2	6	270	0.00	30.037 
08:10	13.5	13.5	13.5	71	5.9	2	4	248	0.00	30.041 
08:15	13.1	13.1	13.1	71	5.5	1	3	248	0.00	30.044 
08:20	13.1	13.1	13.1	71	5.5	1	3	248	0.00	30.045 
08:25	13.1	13.1	13.1	71	5.5	2	6	248	0.00	30.046 
08:30	13.3	13.3	13.3	71	5.7	2	5	270	0.00	30.046 
08:35	13.5	13.5	13.5	71	5.9	2	6	270	0.00	30.048 
08:40	13.5	13.5	13.5	70	5.6	2	6	270	0.00	30.050 
08:45	13.6	13.6	13.6	70	5.7	2	5	270	0.00	30.050 
08:50	13.8	13.8	13.8	69	5.5	2	4	248	0.00	30.051 
08:55	14.0	14.0	14.0	69	5.7	3	9	270	0.00	30.051 
09:00	14.0	14.0	14.0	69	5.7	2	5	270	0.00	30.052 
09:05	14.1	14.1	14.1	68	5.5	2	5	270	0.00	30.054 
09:10	14.1	14.1	14.1	68	5.5	2	9	270	0.00	30.052 
09:15	14.1	14.1	14.1	68	5.5	2	5	270	0.00	30.052 
09:20	14.3	14.3	14.3	68	5.7	3	7	270	0.00	30.052 
09:25	14.4	14.4	14.4	68	5.8	2	5	270	0.00	30.051 
09:30	14.6	14.6	14.6	68	6.0	3	7	270	0.00	30.055 
09:35	14.9	14.9	14.9	67	6.0	3	7	270	0.00	30.058 
09:40	15.1	15.1	15.1	67	6.1	2	6	248	0.00	30.062 
09:45	15.2	15.2	15.2	67	6.2	3	7	248	0.00	30.063 
09:50	15.1	15.1	15.1	67	6.1	3	6	270	0.00	30.063 
09:55	15.1	15.1	15.1	67	6.1	3	7	270	0.00	30.065 
10:00	14.9	14.9	14.9	68	6.3	3	6	270	0.00	30.065 
10:05	15.1	15.1	15.1	69	6.8	3	6	248	0.00	30.070 
10:10	15.1	15.1	15.1	68	6.5	3	6	248	0.00	30.072 
10:15	15.1	15.1	15.1	68	6.5	2	6	270	0.00	30.073 
10:20	15.1	15.1	15.1	68	6.5	3	10	270	0.00	30.073 
10:25	15.2	15.2	15.2	68	6.6	3	7	270	0.00	30.072 
10:30	15.2	8.7	15.2	67	6.2	4	7	270	0.00	30.075 
10:35	15.2	15.2	15.2	67	6.2	3	7	248	0.00	30.076 
10:40	15.4	15.4	15.4	67	6.4	3	9	270	0.00	30.078 
10:45	15.6	15.6	15.6	66	6.3	3	6	248	0.00	30.077 
10:50	15.6	15.6	15.6	66	6.3	3	7	248	0.00	30.077 
10:55	15.7	15.7	15.7	66	6.4	3	10	270	0.00	30.078 
11:00	15.7	15.7	15.7	66	6.4	3	9	270	0.00	30.078 
11:05	15.7	15.7	15.7	65	6.1	3	12	270	0.00	30.084 
11:10	15.9	15.9	15.9	66	6.6	3	7	270	0.00	30.084 
11:15	15.9	15.9	15.9	65	6.2	3	9	270	0.00	30.085 
11:20	16.1	16.1	16.1	65	6.4	3	10	270	0.00	30.085 
11:25	16.1	16.1	16.1	65	6.4	3	7	270	0.00	30.085 
11:30	16.2	16.2	16.2	65	6.5	3	11	270	0.00	30.085 
11:35	16.2	16.2	16.2	65	6.5	3	10	270	0.00	30.085 
11:40	16.4	16.4	16.4	65	6.7	3	6	270	0.00	30.085 
11:45	16.5	16.5	16.5	64	6.5	3	6	270	0.00	30.083 
11:50	16.7	16.7	16.7	64	6.7	3	7	270	0.00	30.082 
11:55	16.7	16.7	16.7	64	6.7	3	9	270	0.00	30.082 
12:00	16.7	16.7	16.7	63	6.3	3	7	270	0.00	30.081 
12:05	16.7	10.4	16.7	64	6.7	4	10	248	0.00	30.083 
12:10	16.9	16.9	16.9	64	6.9	3	7	270	0.00	30.082 
12:15	17.2	17.2	17.2	64	7.1	3	7	270	0.00	30.082 
12:20	17.3	17.3	17.3	63	6.9	3	9	248	0.00	30.081 
12:25	17.7	17.7	17.7	63	7.3	3	7	270	0.00	30.081 
12:30	17.8	17.8	17.8	63	7.4	2	5	270	0.00	30.079 
12:35	18.1	18.1	18.1	62	7.3	3	5	270	0.00	30.080 
12:40	18.0	11.9	18.0	60	6.5	4	7	270	0.00	30.079 
12:45	17.8	17.8	17.8	61	6.7	3	7	270	0.00	30.078 
12:50	17.8	11.7	17.8	61	6.7	4	7	270	0.00	30.076 
12:55	17.8	17.8	17.8	61	6.7	3	12	248	0.00	30.074 
13:00	18.0	18.0	18.0	61	6.9	3	6	270	0.00	30.075 
13:05	18.0	11.9	18.0	60	6.5	4	13	270	0.00	30.072 
13:10	18.1	18.1	18.1	60	6.6	2	6	270	0.00	30.072 
13:15	18.6	18.6	18.6	60	7.1	2	9	248	0.00	30.072 
13:20	18.1	18.1	18.1	58	5.8	3	7	270	0.00	30.075 
13:25	18.0	18.0	18.0	59	6.1	3	6	270	0.00	30.074 
13:30	18.3	18.3	18.3	59	6.4	3	10	270	0.00	30.072 
13:35	18.4	18.4	18.4	58	6.1	3	7	270	0.00	30.072 
13:40	18.4	18.4	18.4	58	6.1	3	7	270	0.00	30.075 
13:45	18.3	18.3	18.3	58	6.0	3	10	270	0.00	30.075 
13:50	18.3	12.3	18.3	59	6.4	4	7	270	0.00	30.075 
13:55	18.0	11.9	18.0	57	5.4	4	10	270	0.00	30.079 
14:00	18.1	18.1	18.1	58	5.8	2	5	270	0.00	30.081 
14:05	18.3	18.3	18.3	58	6.0	3	9	248	0.00	30.086 
14:10	18.3	18.3	18.3	58	6.0	3	6	270	0.00	30.086 
14:15	18.4	18.4	18.4	58	6.1	3	7	270	0.00	30.085 
14:20	18.4	18.4	18.4	57	5.7	3	9	270	0.00	30.086 
14:25	18.6	18.6	18.6	57	5.9	3	16	270	0.00	30.087 
14:30	18.9	18.9	18.9	58	6.6	3	7	270	0.00	30.086 
14:35	18.9	12.9	18.9	54	5.0	4	11	270	0.00	30.087 
14:40	18.8	18.8	18.8	55	5.3	3	5	270	0.00	30.087 
14:45	18.4	12.4	18.4	54	4.6	4	9	270	0.00	30.088 
14:50	18.6	18.6	18.6	55	5.2	3	6	270	0.00	30.088 
14:55	18.3	12.3	18.3	54	4.5	4	9	270	0.00	30.093 
15:00	18.4	18.4	18.4	55	5.0	3	6	270	0.00	30.094 
15:05	18.4	12.4	18.4	55	5.0	4	6	270	0.00	30.098 
15:10	18.4	18.4	18.4	55	5.0	3	7	270	0.00	30.098 
15:15	18.6	18.6	18.6	55	5.2	3	7	248	0.00	30.099 
15:20	18.6	18.6	18.6	56	5.5	2	5	270	0.00	30.097 
15:25	18.6	18.6	18.6	54	4.8	2	7	248	0.00	30.100 
15:30	18.6	18.6	18.6	53	4.3	3	6	315	0.00	30.102 
15:35	18.8	18.8	18.8	54	4.9	2	9	248	0.00	30.103 
15:40	18.4	18.4	18.4	53	4.2	3	7	270	0.00	30.109 
15:45	18.0	18.0	18.0	54	4.2	3	7	315	0.00	30.111 
15:50	18.0	18.0	18.0	55	4.6	3	5	270	0.00	30.111 
15:55	17.8	17.8	17.8	55	4.4	3	6	270	0.00	30.113 
16:00	17.5	17.5	17.5	55	4.1	2	4	270	0.00	30.117 
16:05	17.3	17.3	17.3	54	3.5	3	7	315	0.00	30.117 
16:10	17.3	17.3	17.3	54	3.5	2	5	315	0.00	30.119 
16:15	17.3	17.3	17.3	55	3.9	2	6	292	0.00	30.118 
16:20	17.2	17.2	17.2	55	3.8	2	5	315	0.00	30.123 
16:25	17.2	17.2	17.2	55	3.8	3	7	270	0.00	30.123 
16:30	16.9	16.9	16.9	54	3.2	3	6	270	0.00	30.121 
16:35	16.7	16.7	16.7	55	3.4	2	6	270	0.00	30.126 
16:40	16.7	16.7	16.7	55	3.4	2	5	270	0.00	30.128 
16:45	16.7	16.7	16.7	55	3.4	1	3	270	0.00	30.132 
16:50	16.5	16.5	16.5	55	3.2	3	6	270	0.00	30.133 
16:55	16.5	16.5	16.5	55	3.2	3	6	270	0.00	30.133 
17:00	16.5	16.5	16.5	55	3.2	2	5	270	0.00	30.135 
17:05	16.2	16.2	16.2	55	2.9	2	6	248	0.00	30.138 
17:10	16.1	16.1	16.1	55	2.8	2	5	270	0.00	30.137 
17:15	15.9	15.9	15.9	56	3.0	2	7	292	0.00	30.139 
17:20	15.7	15.7	15.7	56	2.8	2	6	270	0.00	30.141 
17:25	15.6	15.6	15.6	56	2.7	2	5	248	0.00	30.144 
17:30	15.4	15.4	15.4	56	2.5	1	3	315	0.00	30.145 
17:35	15.2	15.2	15.2	57	2.7	1	3	270	0.00	30.145 
17:40	15.1	15.1	15.1	57	2.6	1	3	270	0.00	30.145 
17:45	14.9	14.9	14.9	57	2.5	1	3	270	0.00	30.144 
17:50	14.8	14.8	14.8	57	2.4	1	2	248	0.00	30.147 
17:55	14.4	14.4	14.4	59	2.7	1	4	225	0.00	30.143 
18:00	14.1	14.1	14.1	60	2.8	1	5	225	0.00	30.145 
18:05	14.0	14.0	14.0	61	3.1	1	4	248	0.00	30.147 
18:10	13.6	13.6	13.6	61	2.7	0	2	248	0.00	30.149 
18:15	13.5	13.5	13.5	62	2.9	1	4	248	0.00	30.151 
18:20	13.1	13.1	13.1	62	2.6	1	3	248	0.00	30.151 
18:25	12.8	12.8	12.8	63	2.6	0	1	225	0.00	30.152 
18:30	12.6	12.6	12.6	63	2.4	1	3	248	0.00	30.153 
18:35	12.4	12.4	12.4	64	2.6	0	2	248	0.00	30.153 
18:40	12.3	12.3	12.3	64	2.5	0	2	248	0.00	30.156 
18:45	12.3	12.3	12.3	64	2.5	1	4	248	0.00	30.156 
18:50	12.1	12.1	12.1	64	2.3	1	3	248	0.00	30.156 
18:55	11.9	11.9	11.9	64	2.1	1	3	248	0.00	30.156 
19:00	11.7	11.7	11.7	63	1.6	1	4	248	0.00	30.156 
19:05	11.7	11.7	11.7	63	1.6	1	5	248	0.00	30.157 
19:10	11.6	11.6	11.6	63	1.5	0	2	248	0.00	30.160 
19:15	11.2	11.2	11.2	63	1.1	0	2	225	0.00	30.166 
19:20	11.1	11.1	11.1	63	1.0	0	4	248	0.00	30.163 
19:25	11.1	11.1	11.1	63	1.0	1	3	248	0.00	30.162 
19:30	10.9	10.9	10.9	63	0.8	1	2	248	0.00	30.163 
19:35	10.7	10.7	10.7	62	0.3	1	3	248	0.00	30.164 
19:40	10.7	10.7	10.7	62	0.3	1	4	248	0.00	30.165 
19:45	10.5	10.5	10.5	62	0.1	1	2	248	0.00	30.167 
19:50	10.5	10.5	10.5	62	0.1	1	3	248	0.00	30.166 
19:55	10.4	10.4	10.4	62	-0.0	1	3	248	0.00	30.167 
20:00	10.2	10.2	10.2	62	-0.2	1	3	248	0.00	30.172 
20:05	10.0	10.0	10.0	62	-0.4	1	2	248	0.00	30.173 
20:10	10.0	10.0	10.0	62	-0.4	1	3	248	0.00	30.174 
20:15	9.9	9.9	9.9	62	-0.5	1	3	248	0.00	30.176 
20:20	9.7	9.7	9.7	63	-0.3	1	3	270	0.00	30.177 
20:25	9.7	9.7	9.7	63	-0.3	1	2	248	0.00	30.180 
20:30	9.5	9.5	9.5	63	-0.5	1	2	248	0.00	30.181 
20:35	9.5	9.5	9.5	63	-0.5	0	2	248	0.00	30.182 
20:40	9.3	9.3	9.3	64	-0.4	0	2	248	0.00	30.187 
20:45	9.2	9.2	9.2	64	-0.5	0	2	248	0.00	30.185 
20:50	9.0	9.0	9.0	64	-0.7	0	2	248	0.00	30.185 
20:55	8.8	8.8	8.8	65	-0.5	0	2	248	0.00	30.180 
21:00	8.6	8.6	8.6	65	-0.7	0	1	248	0.00	30.181 
21:05	8.4	8.4	8.4	65	-0.9	0	1	248	0.00	30.180 
21:10	8.3	8.3	8.3	65	-1.0	0	1	248	0.00	30.187 
21:15	8.1	8.1	8.1	65	-1.2	0	1	248	0.00	30.190 
21:20	7.9	7.9	7.9	66	-1.1	0	1	248	0.00	30.190 
21:25	7.7	7.7	7.7	66	-1.3	0	2	248	0.00	30.190 
21:30	7.6	7.6	7.6	67	-1.0	0	1	248	0.00	30.190 
21:35	7.6	7.6	7.6	67	-1.0	0	2	248	0.00	30.186 
21:40	7.6	7.6	7.6	67	-1.0	0	2	248	0.00	30.184 
21:45	7.4	7.4	7.4	68	-0.9	0	2	248	0.00	30.181 
21:50	7.4	7.4	7.4	68	-0.9	1	2	248	0.00	30.181 
21:55	7.4	7.4	7.4	68	-0.9	0	3	248	0.00	30.179 
22:00	7.2	7.2	7.2	68	-1.1	0	2	248	0.00	30.179 
22:05	7.2	7.2	7.2	69	-0.8	0	1	248	0.00	30.181 
22:10	7.0	7.0	7.0	69	-1.0	0	2	248	0.00	30.177 
22:15	6.9	6.9	6.9	69	-1.1	0	1	248	0.00	30.181 
22:20	6.9	6.9	6.9	69	-1.1	0	1	248	0.00	30.188 
22:25	6.9	6.9	6.9	70	-0.8	0	2	248	0.00	30.190 
22:30	6.7	6.7	6.7	70	-1.0	0	1	248	0.00	30.192 
22:35	6.5	6.5	6.5	70	-1.2	0	1	248	0.00	30.193 
22:40	6.5	6.5	6.5	70	-1.2	0	2	248	0.00	30.194 
22:45	6.5	6.5	6.5	71	-0.9	0	2	248	0.00	30.195 
22:50	6.7	6.7	6.7	71	-0.7	1	3	248	0.00	30.193 
22:55	6.9	6.9	6.9	71	-0.5	0	3	270	0.00	30.191 
23:00	6.9	6.9	6.9	71	-0.5	1	2	248	0.00	30.191 
23:05	7.0	7.0	7.0	71	-0.4	1	3	248	0.00	30.189 
23:10	7.2	7.2	7.2	70	-0.5	1	2	248	0.00	30.189 
23:15	7.4	7.4	7.4	70	-0.3	0	2	248	0.00	30.188 
23:20	7.6	7.6	7.6	70	-0.1	1	3	248	0.00	30.188 
23:25	7.6	7.6	7.6	70	-0.1	1	2	248	0.00	30.187 
23:30	7.6	7.6	7.6	70	-0.1	1	2	248	0.00	30.188 
23:35	7.7	7.7	7.7	69	-0.3	1	3	248	0.00	30.188 
23:40	7.7	7.7	7.7	69	-0.3	1	3	225	0.00	30.188 
23:45	7.7	7.7	7.7	69	-0.3	1	4	248	0.00	30.188 
23:50	7.7	7.7	7.7	69	-0.3	0	2	270	0.00	30.188 
23:55	7.6	7.6	7.6	69	-0.4	2	5	248	0.00	30.187 

CoCoRaHS
IN-AL-39
A2 Web Hosting
Creative Commons License
GoDaddy
search engine by freefind advanced

loaded 2018-11-19 19:59:32 • last modified 2010-11-18 10:43:29
Privacy PolicyDisclaimer
• wx.awcolley.com is powered by PmWiki v.2002016 •
• all content (unless otherwise noted) © 2018 A W Colley